Time;durP1;ratioP1;P1;durP2;ratioP2;P2;SDS_P1;SDS_P2;PMS_P1;PMS_P2;Temp;Humidity;BMP_temperature;BMP_pressure;BME280_temperature;BME280_humidity;BME280_pressure;Samples;Min_cycle;Max_cycle;Signal;HPM_P1;HPM_P2
2021/08/04 00:01:30;;;;;;;5.10;4.60;;;16.80;75.70;;;;;;5054147;28;20037;-36
2021/08/04 00:03:56;;;;;;;5.50;4.88;;;16.80;75.70;;;;;;5053952;28;20021;-36
2021/08/04 00:06:21;;;;;;;5.57;4.70;;;16.80;75.80;;;;;;5053677;28;20031;-36
2021/08/04 00:08:47;;;;;;;8.88;4.35;;;16.80;75.80;;;;;;5053753;28;20036;-37
2021/08/04 00:11:13;;;;;;;8.63;5.32;;;16.80;75.70;;;;;;5053964;28;20075;-36
2021/08/04 00:13:38;;;;;;;7.35;4.40;;;16.80;75.70;;;;;;5054003;28;20357;-38
2021/08/04 00:16:05;;;;;;;9.90;4.68;;;16.80;75.70;;;;;;5053628;28;20048;-36
2021/08/04 00:18:30;;;;;;;8.60;4.82;;;16.80;75.80;;;;;;5053788;28;20112;-35
2021/08/04 00:20:56;;;;;;;10.77;5.13;;;16.80;75.70;;;;;;5053792;28;20064;-35
2021/08/04 00:23:21;;;;;;;6.95;4.50;;;16.80;75.60;;;;;;5053509;28;20025;-38
2021/08/04 00:25:48;;;;;;;5.85;4.25;;;16.80;75.70;;;;;;5053687;28;20025;-35
2021/08/04 00:28:13;;;;;;;6.38;4.20;;;16.80;75.50;;;;;;5053430;28;20114;-35
2021/08/04 00:30:39;;;;;;;7.60;4.63;;;16.80;75.60;;;;;;5053360;28;20059;-36
2021/08/04 00:33:05;;;;;;;6.45;4.30;;;16.80;75.50;;;;;;5053168;28;20040;-36
2021/08/04 00:35:30;;;;;;;5.90;4.60;;;16.80;75.70;;;;;;5053189;28;20476;-36
2021/08/04 00:37:56;;;;;;;5.75;4.25;;;16.70;75.90;;;;;;5053494;28;20033;-36
2021/08/04 00:40:22;;;;;;;5.00;4.28;;;16.80;75.70;;;;;;5053715;28;20032;-36
2021/08/04 00:42:47;;;;;;;12.20;4.72;;;16.70;76.00;;;;;;5052295;28;20032;-36
2021/08/04 00:45:13;;;;;;;10.50;4.85;;;16.70;76.00;;;;;;5053200;28;20048;-36
2021/08/04 00:47:40;;;;;;;7.50;4.47;;;16.70;75.90;;;;;;5053459;28;20024;-37
2021/08/04 00:50:07;;;;;;;8.10;4.10;;;16.70;76.10;;;;;;5051853;28;20049;-37
2021/08/04 00:52:33;;;;;;;8.32;5.47;;;16.70;76.10;;;;;;5053066;28;20472;-36
2021/08/04 00:54:58;;;;;;;7.93;5.03;;;16.70;76.20;;;;;;5053208;28;20044;-36
2021/08/04 00:57:24;;;;;;;6.20;4.55;;;16.60;76.20;;;;;;5052888;28;20021;-37
2021/08/04 00:59:50;;;;;;;4.93;3.90;;;16.60;76.20;;;;;;5052579;28;20041;-36
2021/08/04 01:02:24;;;;;;;5.57;4.15;;;16.60;76.10;;;;;;5052699;28;20021;-36
2021/08/04 01:04:58;;;;;;;7.03;4.90;;;16.60;76.00;;;;;;5052923;28;20385;-36
2021/08/04 01:07:53;;;;;;;20.75;6.38;;;16.60;75.90;;;;;;5051382;28;20377;-36
2021/08/04 01:10:39;;;;;;;10.52;4.65;;;16.70;75.60;;;;;;5052624;28;20109;-36
2021/08/04 01:13:13;;;;;;;10.50;4.97;;;16.60;75.90;;;;;;5052569;28;20029;-36
2021/08/04 01:15:45;;;;;;;8.88;4.85;;;16.60;75.80;;;;;;5052489;28;20385;-37
2021/08/04 01:18:15;;;;;;;10.55;4.60;;;16.50;75.90;;;;;;5052594;28;20021;-36
2021/08/04 01:20:42;;;;;;;7.20;4.72;;;16.60;76.00;;;;;;5052373;28;20021;-36
2021/08/04 01:23:16;;;;;;;12.98;5.38;;;16.50;76.20;;;;;;5052639;28;20478;-36
2021/08/04 01:26:19;;;;;;;5.70;4.93;;;16.40;76.80;;;;;;5052710;28;20036;-36
2021/08/04 01:28:50;;;;;;;6.97;4.57;;;16.40;76.70;;;;;;5052615;28;20026;-37
2021/08/04 01:31:18;;;;;;;6.65;4.75;;;16.40;77.00;;;;;;5052430;28;20045;-36
2021/08/04 01:33:47;;;;;;;11.07;4.68;;;16.30;77.20;;;;;;5052704;28;20029;-36
2021/08/04 01:36:13;;;;;;;9.07;5.57;;;16.20;77.70;;;;;;5051701;28;20376;-35
2021/08/04 01:38:40;;;;;;;8.52;4.95;;;16.20;77.90;;;;;;5052719;28;20052;-35
2021/08/04 01:41:08;;;;;;;6.93;4.70;;;16.10;78.30;;;;;;5052538;28;20017;-35
2021/08/04 01:43:35;;;;;;;8.07;5.60;;;16.20;78.20;;;;;;5052806;28;20104;-36
2021/08/04 01:46:02;;;;;;;8.27;5.07;;;16.10;78.40;;;;;;5054381;28;20483;-35
2021/08/04 01:48:29;;;;;;;7.53;5.20;;;16.00;78.90;;;;;;5056368;28;20056;-35
2021/08/04 01:51:01;;;;;;;9.98;5.22;;;16.00;78.90;;;;;;5056412;28;20052;-35
2021/08/04 01:53:28;;;;;;;8.73;5.45;;;15.90;79.00;;;;;;5056524;28;20017;-36
2021/08/04 01:55:54;;;;;;;11.65;5.60;;;15.80;79.60;;;;;;5056626;28;20036;-36
2021/08/04 01:58:20;;;;;;;9.35;5.72;;;15.70;80.20;;;;;;5056412;28;20033;-36
2021/08/04 02:00:46;;;;;;;8.90;4.80;;;15.70;80.30;;;;;;5056285;28;20025;-36
2021/08/04 02:03:11;;;;;;;8.45;4.93;;;15.60;80.30;;;;;;5056153;28;20031;-36
2021/08/04 02:05:37;;;;;;;8.68;5.35;;;15.60;80.20;;;;;;5056204;28;20022;-35
2021/08/04 02:08:14;;;;;;;10.05;5.15;;;15.70;80.40;;;;;;5055941;28;20507;-36
2021/08/04 02:10:57;;;;;;;6.50;5.05;;;15.70;80.20;;;;;;5056028;28;20079;-36
2021/08/04 02:13:35;;;;;;;7.80;5.35;;;15.70;80.20;;;;;;5055840;28;20028;-36
2021/08/04 02:16:45;;;;;;;6.43;4.78;;;15.70;80.30;;;;;;5055869;28;20063;-36
2021/08/04 02:19:31;;;;;;;5.93;5.35;;;15.70;80.60;;;;;;5055316;28;20048;-37
2021/08/04 02:22:03;;;;;;;7.35;5.35;;;15.70;80.80;;;;;;5056007;28;20040;-36
2021/08/04 02:24:32;;;;;;;12.35;5.63;;;15.60;80.70;;;;;;5055251;28;20437;-36
2021/08/04 02:27:00;;;;;;;6.78;4.55;;;15.70;80.90;;;;;;5055724;28;20100;-37
2021/08/04 02:29:33;;;;;;;11.32;4.82;;;15.70;80.70;;;;;;5056046;28;20025;-36
2021/08/04 02:32:03;;;;;;;7.18;4.72;;;15.70;80.60;;;;;;5055525;28;20049;-36
2021/08/04 02:34:29;;;;;;;8.18;4.63;;;15.70;80.50;;;;;;5055930;28;20027;-37
2021/08/04 02:36:55;;;;;;;11.23;5.70;;;15.70;80.50;;;;;;5055381;28;20433;-37
2021/08/04 02:39:21;;;;;;;7.93;5.15;;;15.80;80.40;;;;;;5055658;28;20381;-36
2021/08/04 02:41:47;;;;;;;7.28;4.72;;;15.80;80.30;;;;;;5055536;28;20036;-36
2021/08/04 02:44:15;;;;;;;5.18;4.43;;;15.60;80.50;;;;;;5055621;28;20025;-36
2021/08/04 02:46:44;;;;;;;6.85;4.72;;;15.60;80.80;;;;;;5055191;28;20025;-36
2021/08/04 02:49:10;;;;;;;9.48;5.78;;;15.80;81.00;;;;;;5055212;28;20104;-36
2021/08/04 02:51:39;;;;;;;8.32;4.90;;;15.80;80.20;;;;;;5055204;28;20354;-36
2021/08/04 02:54:05;;;;;;;7.00;5.38;;;15.70;81.00;;;;;;5055402;28;20492;-36
2021/08/04 02:56:31;;;;;;;6.85;4.72;;;15.50;81.30;;;;;;5054227;28;20020;-37
2021/08/04 02:58:56;;;;;;;7.78;4.85;;;15.50;81.70;;;;;;5054848;28;20492;-36
2021/08/04 03:01:22;;;;;;;8.15;5.15;;;15.40;81.80;;;;;;5055287;28;20025;-36
2021/08/04 03:03:48;;;;;;;10.93;4.75;;;15.50;81.80;;;;;;5055008;28;20048;-37
2021/08/04 03:06:13;;;;;;;8.77;5.22;;;15.40;82.00;;;;;;5055345;28;20052;-36
2021/08/04 03:08:39;;;;;;;6.93;4.85;;;15.30;82.10;;;;;;5055104;28;20517;-36
2021/08/04 03:11:07;;;;;;;8.00;5.18;;;15.30;82.50;;;;;;5054996;28;20029;-36
2021/08/04 03:13:33;;;;;;;9.85;5.68;;;15.30;82.80;;;;;;5054773;28;20021;-36
2021/08/04 03:15:59;;;;;;;7.88;4.68;;;15.30;82.90;;;;;;5053366;28;20110;-36
2021/08/04 03:18:25;;;;;;;6.68;5.50;;;15.20;82.90;;;;;;5054479;28;20064;-37
2021/08/04 03:20:51;;;;;;;6.95;5.40;;;15.20;82.90;;;;;;5054516;28;20057;-37
2021/08/04 03:23:16;;;;;;;6.07;5.40;;;15.20;83.00;;;;;;5054687;28;20358;-36
2021/08/04 03:25:42;;;;;;;8.63;6.13;;;15.30;82.20;;;;;;5054816;28;20082;-36
2021/08/04 03:28:07;;;;;;;6.65;5.35;;;15.30;81.90;;;;;;5054640;28;20086;-36
2021/08/04 03:30:33;;;;;;;6.70;5.32;;;15.20;82.20;;;;;;5054597;28;20021;-36
2021/08/04 03:32:59;;;;;;;13.50;7.03;;;15.20;82.30;;;;;;5054263;28;20087;-36
2021/08/04 03:35:24;;;;;;;6.30;5.70;;;15.10;82.70;;;;;;5054307;28;20112;-36
2021/08/04 03:37:50;;;;;;;11.75;5.65;;;15.10;83.00;;;;;;5054230;28;20047;-36
2021/08/04 03:40:16;;;;;;;9.35;5.90;;;15.00;82.90;;;;;;5054498;28;20094;-36
2021/08/04 03:42:41;;;;;;;14.23;6.70;;;15.00;83.00;;;;;;5054092;28;20024;-36
2021/08/04 03:45:08;;;;;;;10.18;6.10;;;14.90;83.00;;;;;;5054164;28;20032;-36
2021/08/04 03:47:33;;;;;;;6.97;6.03;;;14.90;83.20;;;;;;5054120;28;20104;-36
2021/08/04 03:49:59;;;;;;;9.80;6.50;;;14.90;83.20;;;;;;5054200;28;20160;-37
2021/08/04 03:52:25;;;;;;;9.98;6.43;;;14.80;83.20;;;;;;5053848;28;20021;-36
2021/08/04 03:54:50;;;;;;;8.95;5.88;;;14.80;83.20;;;;;;5054136;28;20029;-36
2021/08/04 03:57:16;;;;;;;8.57;6.70;;;14.80;83.30;;;;;;5054183;28;20477;-36
2021/08/04 03:59:42;;;;;;;9.00;6.30;;;14.80;83.70;;;;;;5053779;28;20056;-36
2021/08/04 04:02:07;;;;;;;7.97;5.93;;;14.80;83.70;;;;;;5053802;28;20499;-36
2021/08/04 04:04:33;;;;;;;8.85;6.38;;;14.70;83.90;;;;;;5053721;28;20060;-36
2021/08/04 04:06:59;;;;;;;13.40;6.95;;;14.70;84.00;;;;;;5053697;28;20082;-37
2021/08/04 04:09:24;;;;;;;11.93;7.00;;;14.70;84.30;;;;;;5053202;28;20465;-36
2021/08/04 04:11:50;;;;;;;10.10;6.82;;;14.70;83.90;;;;;;5053839;28;20033;-36
2021/08/04 04:14:16;;;;;;;9.68;6.85;;;14.80;84.00;;;;;;5053564;28;20549;-36
2021/08/04 04:16:41;;;;;;;11.80;6.97;;;14.60;84.40;;;;;;5053693;28;20029;-36
2021/08/04 04:19:08;;;;;;;11.27;7.07;;;14.60;84.80;;;;;;5053838;28;20028;-36
2021/08/04 04:21:34;;;;;;;12.50;7.07;;;14.50;85.10;;;;;;5053366;28;20021;-37
2021/08/04 04:24:00;;;;;;;8.10;6.63;;;14.50;85.20;;;;;;5053416;28;20056;-36
2021/08/04 04:26:25;;;;;;;7.47;6.13;;;14.50;85.30;;;;;;5053592;28;20068;-36
2021/08/04 04:28:51;;;;;;;7.75;6.95;;;14.60;85.20;;;;;;5053198;28;20044;-36
2021/08/04 04:31:17;;;;;;;12.00;7.18;;;14.50;85.20;;;;;;5053280;28;20041;-35
2021/08/04 04:33:42;;;;;;;18.73;7.05;;;14.50;85.30;;;;;;5053235;28;20025;-35
2021/08/04 04:36:08;;;;;;;9.75;6.85;;;14.60;85.30;;;;;;5053353;28;20044;-36
2021/08/04 04:38:34;;;;;;;12.93;7.57;;;14.60;85.10;;;;;;5053105;28;20033;-37
2021/08/04 04:41:00;;;;;;;9.48;7.63;;;14.60;85.20;;;;;;5053064;28;20029;-37
2021/08/04 04:43:25;;;;;;;9.30;7.40;;;14.60;84.90;;;;;;5053156;28;20327;-37
2021/08/04 04:45:51;;;;;;;13.20;7.13;;;14.80;84.30;;;;;;5053764;28;20033;-37
2021/08/04 04:48:17;;;;;;;12.02;6.85;;;14.80;84.30;;;;;;5053112;28;20056;-37
2021/08/04 04:50:42;;;;;;;7.95;5.47;;;14.80;84.60;;;;;;5053351;28;20029;-37
2021/08/04 04:53:08;;;;;;;6.85;5.78;;;14.80;84.90;;;;;;5053222;28;20032;-37
2021/08/04 04:55:34;;;;;;;11.02;6.63;;;14.80;84.70;;;;;;5052156;28;20056;-38
2021/08/04 04:57:59;;;;;;;9.10;5.95;;;14.80;84.80;;;;;;5052846;28;20052;-37
2021/08/04 05:00:25;;;;;;;6.68;5.82;;;14.80;84.80;;;;;;5052722;28;20385;-38
2021/08/04 05:02:50;;;;;;;10.65;6.43;;;14.80;84.60;;;;;;5051563;28;20021;-38
2021/08/04 05:05:16;;;;;;;11.57;6.60;;;14.80;84.30;;;;;;5052801;28;20021;-37
2021/08/04 05:07:42;;;;;;;12.85;7.10;;;14.80;84.20;;;;;;5052664;28;20079;-38
2021/08/04 05:10:08;;;;;;;9.90;6.80;;;14.80;84.40;;;;;;5052914;28;20029;-38
2021/08/04 05:12:34;;;;;;;9.85;6.82;;;14.80;84.40;;;;;;5052587;28;20021;-35
2021/08/04 05:14:59;;;;;;;8.52;6.90;;;14.90;84.20;;;;;;5052373;28;20089;-37
2021/08/04 05:17:25;;;;;;;10.23;7.53;;;15.00;84.00;;;;;;5052335;28;20452;-38
2021/08/04 05:19:51;;;;;;;9.45;7.53;;;14.90;84.10;;;;;;5052353;28;20029;-38
2021/08/04 05:22:17;;;;;;;8.40;6.60;;;14.80;84.30;;;;;;5056887;28;20085;-35
2021/08/04 05:24:43;;;;;;;7.90;6.55;;;14.80;84.50;;;;;;5056605;28;20032;-35
2021/08/04 05:27:08;;;;;;;10.70;6.65;;;14.80;84.40;;;;;;5056362;28;20025;-36
2021/08/04 05:29:34;;;;;;;11.00;7.93;;;14.80;84.20;;;;;;5056601;28;20108;-36
2021/08/04 05:31:59;;;;;;;10.05;8.10;;;15.00;83.90;;;;;;5056173;28;20442;-36
2021/08/04 05:34:25;;;;;;;11.45;8.00;;;15.00;83.90;;;;;;5056165;28;20035;-36
2021/08/04 05:36:51;;;;;;;9.88;7.88;;;15.00;83.90;;;;;;5056095;28;20021;-36
2021/08/04 05:39:16;;;;;;;9.85;8.02;;;15.10;83.80;;;;;;5056043;28;20028;-36
2021/08/04 05:41:42;;;;;;;9.48;8.43;;;15.30;83.40;;;;;;5056174;28;20021;-36
2021/08/04 05:44:08;;;;;;;8.95;7.90;;;15.30;82.60;;;;;;5055996;28;20100;-36
2021/08/04 05:46:34;;;;;;;10.43;8.35;;;15.40;82.50;;;;;;5054570;28;20013;-37
2021/08/04 05:48:59;;;;;;;11.75;8.93;;;15.50;82.10;;;;;;5055765;28;20051;-36
2021/08/04 05:51:25;;;;;;;11.10;8.73;;;15.50;82.10;;;;;;5055598;28;20040;-36
2021/08/04 05:53:50;;;;;;;10.63;7.70;;;15.50;82.10;;;;;;5055825;28;20040;-36
2021/08/04 05:56:16;;;;;;;10.35;8.10;;;15.50;82.40;;;;;;5056146;28;20025;-37
2021/08/04 05:58:42;;;;;;;13.10;7.63;;;15.50;82.50;;;;;;5055763;28;20328;-37
2021/08/04 06:01:07;;;;;;;9.25;7.90;;;15.60;82.40;;;;;;5055860;28;20113;-37
2021/08/04 06:03:34;;;;;;;9.75;7.47;;;15.60;82.30;;;;;;5055909;28;20029;-37
2021/08/04 06:06:00;;;;;;;12.30;8.55;;;15.70;82.20;;;;;;5056644;28;20021;-38
2021/08/04 06:08:26;;;;;;;12.70;7.78;;;15.80;81.80;;;;;;5056235;28;20029;-37
2021/08/04 06:10:52;;;;;;;13.05;8.00;;;15.80;81.70;;;;;;5055777;28;20029;-37
2021/08/04 06:13:17;;;;;;;9.48;7.35;;;15.90;81.70;;;;;;5055795;28;20036;-36
2021/08/04 06:15:43;;;;;;;10.60;7.80;;;16.10;81.10;;;;;;5055681;28;20083;-36
2021/08/04 06:18:09;;;;;;;14.13;8.63;;;16.30;80.80;;;;;;5055821;28;20107;-36
2021/08/04 06:20:34;;;;;;;11.38;8.40;;;16.40;79.80;;;;;;5055534;28;20059;-37
2021/08/04 06:23:00;;;;;;;9.60;8.10;;;16.60;78.90;;;;;;5055692;28;20025;-37
2021/08/04 06:25:26;;;;;;;15.07;8.95;;;16.80;78.00;;;;;;5055627;28;20373;-36
2021/08/04 06:27:52;;;;;;;8.70;7.10;;;17.10;77.30;;;;;;5055449;28;20159;-37
2021/08/04 06:30:18;;;;;;;10.40;7.13;;;17.20;76.40;;;;;;5055466;28;20055;-38
2021/08/04 06:32:47;;;;;;;17.20;8.13;;;17.30;76.20;;;;;;5055126;28;20493;-40
2021/08/04 06:35:13;;;;;;;11.95;7.70;;;17.50;76.30;;;;;;5055132;28;20017;-37
2021/08/04 06:37:39;;;;;;;12.35;8.65;;;17.60;75.80;;;;;;5055720;28;20354;-37
2021/08/04 06:40:05;;;;;;;13.13;7.82;;;17.80;74.90;;;;;;5055229;28;20025;-37
2021/08/04 06:42:31;;;;;;;10.65;8.82;;;17.70;75.70;;;;;;5055076;28;20021;-37
2021/08/04 06:44:57;;;;;;;13.98;8.68;;;17.80;75.30;;;;;;5055473;28;20025;-37
2021/08/04 06:47:22;;;;;;;11.77;8.57;;;17.80;74.20;;;;;;5053885;28;20436;-37
2021/08/04 06:49:48;;;;;;;14.02;9.07;;;17.80;74.60;;;;;;5054862;28;20108;-37
2021/08/04 06:52:14;;;;;;;13.82;9.65;;;17.90;74.40;;;;;;5054778;28;20047;-36
2021/08/04 06:54:39;;;;;;;13.73;9.55;;;17.70;74.20;;;;;;5054592;28;20078;-36
2021/08/04 06:57:05;;;;;;;14.30;9.48;;;17.80;73.40;;;;;;5054511;28;20361;-36
2021/08/04 06:59:31;;;;;;;15.63;10.88;;;17.90;73.80;;;;;;5054497;28;20082;-36
2021/08/04 07:02:01;;;;;;;12.40;9.38;;;18.30;72.80;;;;;;5054625;28;20025;-36
2021/08/04 07:04:27;;;;;;;13.20;8.60;;;18.80;71.20;;;;;;5054408;28;20025;-36
2021/08/04 07:06:58;;;;;;;12.80;9.20;;;18.80;71.00;;;;;;5054407;28;20029;-39
2021/08/04 07:09:24;;;;;;;14.77;8.48;;;18.70;71.10;;;;;;5054061;28;20390;-36
2021/08/04 07:11:50;;;;;;;14.10;9.43;;;18.70;71.90;;;;;;5054194;28;20110;-36
2021/08/04 07:14:19;;;;;;;14.38;9.18;;;18.50;72.20;;;;;;5054446;28;20040;-36
2021/08/04 07:16:46;;;;;;;13.40;9.15;;;18.40;72.90;;;;;;5054164;28;20492;-36
2021/08/04 07:19:12;;;;;;;13.90;8.65;;;18.60;72.60;;;;;;5054096;28;20462;-36
2021/08/04 07:21:39;;;;;;;16.20;11.90;;;18.50;71.30;;;;;;5053968;28;20135;-37
2021/08/04 07:24:09;;;;;;;12.70;7.90;;;18.60;70.80;;;;;;5054011;28;20021;-38
2021/08/04 07:26:36;;;;;;;16.73;8.02;;;18.60;70.60;;;;;;5054132;28;20040;-38
2021/08/04 07:29:03;;;;;;;12.55;8.02;;;18.80;68.70;;;;;;5053672;28;20112;-38
2021/08/04 07:31:29;;;;;;;13.25;8.25;;;18.80;69.10;;;;;;5053350;28;20049;-37
2021/08/04 07:33:55;;;;;;;10.18;7.93;;;18.90;69.30;;;;;;5054206;28;20044;-36
2021/08/04 07:36:21;;;;;;;10.65;8.05;;;19.10;68.30;;;;;;5053501;28;20036;-37
2021/08/04 07:38:47;;;;;;;13.05;8.02;;;19.20;67.90;;;;;;5053962;28;20103;-36
2021/08/04 07:41:13;;;;;;;12.43;8.63;;;19.20;68.00;;;;;;5053749;28;20025;-37
2021/08/04 07:43:39;;;;;;;14.35;9.13;;;19.30;67.50;;;;;;5051646;28;20017;-37
2021/08/04 07:46:05;;;;;;;9.40;8.05;;;19.30;67.50;;;;;;5053583;28;20060;-37
2021/08/04 07:48:32;;;;;;;12.10;7.97;;;19.10;68.20;;;;;;5053915;28;20052;-37
2021/08/04 07:51:00;;;;;;;10.18;7.43;;;19.30;67.20;;;;;;5053554;28;20021;-38
2021/08/04 07:53:26;;;;;;;13.52;8.27;;;19.50;66.90;;;;;;5053708;28;20036;-37
2021/08/04 07:55:52;;;;;;;13.73;8.63;;;19.60;66.90;;;;;;5053329;28;20036;-37
2021/08/04 07:58:18;;;;;;;14.13;8.45;;;19.80;67.40;;;;;;5053252;28;20036;-37
2021/08/04 08:00:44;;;;;;;11.07;9.00;;;19.50;67.90;;;;;;5053695;28;20013;-36
2021/08/04 08:03:09;;;;;;;11.38;7.72;;;19.70;66.60;;;;;;5053701;28;20021;-37
2021/08/04 08:05:35;;;;;;;10.07;7.75;;;19.80;66.00;;;;;;5053867;28;20028;-36
2021/08/04 08:08:04;;;;;;;14.57;7.88;;;19.40;67.40;;;;;;5054103;28;20036;-37
2021/08/04 08:10:32;;;;;;;10.05;7.30;;;19.80;66.10;;;;;;5053987;28;20017;-37
2021/08/04 08:12:58;;;;;;;10.20;7.53;;;20.10;65.70;;;;;;5052856;28;20400;-37
2021/08/04 08:15:23;;;;;;;11.50;7.68;;;20.10;65.20;;;;;;5052619;28;20017;-37
2021/08/04 08:17:49;;;;;;;10.70;7.43;;;19.80;66.00;;;;;;5053067;28;20036;-39
2021/08/04 08:20:16;;;;;;;9.35;7.75;;;19.70;66.70;;;;;;5035573;28;20037;-37
2021/08/04 08:22:42;;;;;;;11.07;7.93;;;20.20;64.70;;;;;;5053463;28;20025;-37
2021/08/04 08:25:14;;;;;;;19.33;8.60;;;20.50;64.50;;;;;;5051817;28;20029;-36
2021/08/04 08:27:41;;;;;;;8.77;6.43;;;22.00;59.20;;;;;;5051796;28;20056;-36
2021/08/04 08:30:08;;;;;;;10.60;6.72;;;21.80;59.10;;;;;;5053571;28;20132;-36
2021/08/04 08:32:34;;;;;;;9.45;6.68;;;22.60;57.10;;;;;;5053237;28;20497;-37
2021/08/04 08:34:59;;;;;;;9.27;7.00;;;22.90;55.50;;;;;;5051922;28;20135;-36
2021/08/04 08:37:25;;;;;;;8.63;6.72;;;21.20;60.70;;;;;;5053426;28;20028;-35
2021/08/04 08:39:51;;;;;;;15.55;6.50;;;21.40;60.50;;;;;;5051492;28;20075;-36
2021/08/04 08:42:20;;;;;;;16.83;7.95;;;21.60;59.70;;;;;;5052944;28;20069;-36
2021/08/04 08:44:47;;;;;;;13.38;7.03;;;22.20;58.90;;;;;;5052792;28;20094;-36
2021/08/04 08:47:14;;;;;;;8.60;5.25;;;22.80;56.90;;;;;;5053025;28;20491;-37
2021/08/04 08:49:43;;;;;;;8.13;5.18;;;23.30;54.50;;;;;;5053193;28;20454;-37
2021/08/04 08:52:09;;;;;;;6.55;5.43;;;22.90;55.40;;;;;;5052951;28;20099;-37
2021/08/04 08:54:35;;;;;;;7.55;5.22;;;22.50;55.10;;;;;;5052712;28;20402;-36
2021/08/04 08:57:00;;;;;;;8.48;5.03;;;21.60;56.40;;;;;;5052776;28;20029;-37
2021/08/04 08:59:26;;;;;;;6.57;3.92;;;22.00;55.40;;;;;;5051194;28;20033;-38
2021/08/04 09:01:52;;;;;;;5.30;3.95;;;22.40;53.60;;;;;;5052140;28;20430;-38
2021/08/04 09:04:19;;;;;;;6.45;4.10;;;22.80;52.50;;;;;;5052735;28;20099;-37
2021/08/04 09:06:50;;;;;;;5.13;3.58;;;23.50;50.00;;;;;;5052574;28;20071;-37
2021/08/04 09:09:24;;;;;;;5.22;3.85;;;23.20;50.20;;;;;;5052640;28;20021;-37
2021/08/04 09:12:17;;;;;;;6.45;2.92;;;23.10;50.50;;;;;;5052512;28;20529;-36
2021/08/04 09:14:43;;;;;;;6.00;3.03;;;22.30;50.00;;;;;;5051988;28;20132;-37
2021/08/04 09:17:14;;;;;;;5.28;2.90;;;22.80;49.10;;;;;;5034754;28;20029;-37
2021/08/04 09:19:45;;;;;;;2.78;2.33;;;22.40;49.40;;;;;;5051417;28;20409;-38
2021/08/04 09:22:16;;;;;;;4.18;2.67;;;22.60;48.40;;;;;;5052895;28;20426;-38
2021/08/04 09:24:55;;;;;;;5.97;3.55;;;23.00;49.60;;;;;;5051767;28;20207;-37
2021/08/04 09:27:49;;;;;;;5.07;2.75;;;23.00;50.70;;;;;;5054143;28;20021;-37
2021/08/04 09:30:22;;;;;;;4.20;3.05;;;23.00;50.30;;;;;;5052659;28;20456;-37
2021/08/04 09:32:49;;;;;;;5.93;3.08;;;22.20;52.40;;;;;;5034699;28;20049;-37
2021/08/04 09:35:20;;;;;;;6.55;2.25;;;22.80;51.70;;;;;;5052883;28;20028;-37
2021/08/04 09:37:50;;;;;;;4.78;2.70;;;22.60;50.30;;;;;;5052225;28;20349;-37
2021/08/04 09:40:21;;;;;;;3.72;2.47;;;22.80;50.70;;;;;;5051723;28;20025;-38
2021/08/04 09:42:54;;;;;;;5.55;2.25;;;23.70;49.20;;;;;;5051595;28;20025;-37
2021/08/04 09:45:24;;;;;;;5.15;2.88;;;24.30;46.60;;;;;;5050027;28;20099;-37
2021/08/04 09:48:08;;;;;;;4.72;2.90;;;23.70;46.80;;;;;;5051435;28;20022;-37
2021/08/04 09:50:57;;;;;;;5.40;2.53;;;23.30;49.10;;;;;;5052077;28;20404;-36
2021/08/04 09:53:35;;;;;;;7.13;2.85;;;23.30;50.10;;;;;;5050852;28;20439;-37
2021/08/04 09:56:20;;;;;;;4.60;2.80;;;23.70;49.40;;;;;;5051373;28;20040;-40
2021/08/04 09:58:50;;;;;;;3.20;2.53;;;24.20;48.20;;;;;;5051653;28;20049;-37
2021/08/04 10:01:19;;;;;;;5.80;2.95;;;24.90;46.10;;;;;;5051571;28;20022;-37
2021/08/04 10:04:05;;;;;;;4.72;2.53;;;25.50;43.80;;;;;;5051657;28;20017;-37
2021/08/04 10:06:32;;;;;;;4.55;2.90;;;24.20;47.30;;;;;;5052618;28;20079;-37
2021/08/04 10:09:00;;;;;;;9.48;2.30;;;24.20;47.80;;;;;;5055251;28;20021;-37
2021/08/04 10:11:26;;;;;;;6.60;2.55;;;24.60;47.50;;;;;;5055957;28;20033;-37
2021/08/04 10:13:58;;;;;;;5.38;3.05;;;24.60;46.40;;;;;;5055799;28;20056;-38
2021/08/04 10:16:29;;;;;;;3.35;2.50;;;23.60;47.90;;;;;;5055508;28;20028;-38
2021/08/04 10:18:55;;;;;;;7.22;3.00;;;22.80;50.50;;;;;;5055550;28;20136;-37
2021/08/04 10:21:21;;;;;;;8.85;4.45;;;22.60;51.60;;;;;;5054381;28;20052;-37
2021/08/04 10:23:50;;;;;;;4.10;2.80;;;23.00;51.00;;;;;;5055629;28;20469;-37
2021/08/04 10:26:17;;;;;;;6.72;2.55;;;23.70;49.20;;;;;;5054988;28;20075;-37
2021/08/04 10:28:44;;;;;;;6.32;2.53;;;23.00;49.40;;;;;;5055238;28;20083;-37
2021/08/04 10:31:11;;;;;;;3.83;2.17;;;23.80;48.20;;;;;;5054887;28;20041;-37
2021/08/04 10:33:41;;;;;;;2.92;2.15;;;25.30;43.90;;;;;;5054878;28;20086;-36
2021/08/04 10:36:12;;;;;;;5.07;2.63;;;27.10;39.40;;;;;;5053367;28;20033;-37
2021/08/04 10:38:54;;;;;;;3.90;2.33;;;26.40;39.80;;;;;;5054762;28;20443;-37
2021/08/04 10:41:24;;;;;;;3.85;2.45;;;24.80;43.80;;;;;;5054962;28;20330;-36
2021/08/04 10:44:04;;;;;;;8.70;2.80;;;23.90;45.80;;;;;;5053612;28;20374;-36
2021/08/04 10:46:30;;;;;;;3.97;2.67;;;25.10;42.50;;;;;;5054558;28;20021;-36
2021/08/04 10:49:13;;;;;;;3.50;2.63;;;26.20;41.10;;;;;;5053012;28;20346;-36
2021/08/04 10:52:04;;;;;;;7.53;2.90;;;25.60;42.90;;;;;;5056805;28;20068;-49
2021/08/04 10:54:30;;;;;;;3.22;2.85;;;23.90;45.90;;;;;;5054946;28;20106;-48
2021/08/04 10:56:56;;;;;;;5.30;2.60;;;22.80;48.10;;;;;;5054436;28;20033;-48
2021/08/04 10:59:28;;;;;;;2.63;2.42;;;23.60;45.50;;;;;;5054430;28;20037;-50
2021/08/04 11:02:15;;;;;;;6.30;2.95;;;25.00;42.90;;;;;;5054633;28;20438;-48
2021/08/04 11:04:43;;;;;;;4.10;2.00;;;26.10;41.00;;;;;;5053397;28;20057;-49
2021/08/04 11:07:20;;;;;;;3.10;2.55;;;26.80;39.30;;;;;;5054571;28;20419;-48
2021/08/04 11:09:48;;;;;;;3.58;2.40;;;27.50;38.00;;;;;;5054663;28;20025;-49
2021/08/04 11:12:15;;;;;;;6.13;2.17;;;29.00;35.60;;;;;;5053740;28;20036;-49
2021/08/04 11:14:53;;;;;;;7.40;3.35;;;28.80;35.90;;;;;;5052780;28;20051;-51
2021/08/04 11:17:30;;;;;;;6.05;2.80;;;29.10;34.90;;;;;;5053065;28;20078;-49
2021/08/04 11:20:08;;;;;;;3.67;2.53;;;27.50;38.20;;;;;;5053847;28;20086;-52
2021/08/04 11:22:39;;;;;;;8.60;3.15;;;27.30;39.10;;;;;;5052929;28;20052;-50
2021/08/04 11:25:10;;;;;;;7.32;2.67;;;26.60;39.00;;;;;;5052821;28;20021;-50
2021/08/04 11:27:58;;;;;;;4.43;2.65;;;25.30;41.90;;;;;;5054137;28;20104;-49
2021/08/04 11:30:36;;;;;;;3.40;2.00;;;26.50;39.60;;;;;;5053362;28;20037;-51
2021/08/04 11:33:24;;;;;;;4.80;2.85;;;26.90;38.30;;;;;;5054293;28;20064;-51
2021/08/04 11:36:16;;;;;;;4.30;2.55;;;27.10;40.10;;;;;;5053736;28;20021;-52
2021/08/04 11:39:02;;;;;;;4.70;3.22;;;26.60;41.50;;;;;;5053526;28;20032;-49
2021/08/04 11:41:33;;;;;;;6.85;3.30;;;24.60;44.90;;;;;;5053403;28;20045;-48
2021/08/04 11:44:12;;;;;;;3.90;3.00;;;24.20;46.00;;;;;;5053701;28;20100;-51
2021/08/04 11:47:01;;;;;;;3.05;2.75;;;24.00;46.40;;;;;;5052417;28;20032;-52
2021/08/04 11:49:34;;;;;;;6.60;3.20;;;23.80;47.00;;;;;;5052306;28;20539;-48
2021/08/04 11:52:05;;;;;;;4.93;3.15;;;23.30;48.20;;;;;;5052532;28;20025;-51
2021/08/04 11:54:37;;;;;;;4.57;2.97;;;24.20;47.40;;;;;;5053577;28;20366;-47
2021/08/04 11:57:06;;;;;;;6.80;3.22;;;24.30;46.60;;;;;;5053703;28;20108;-48
2021/08/04 11:59:48;;;;;;;6.10;3.20;;;25.10;44.20;;;;;;5053793;28;20025;-48
2021/08/04 12:02:14;;;;;;;4.55;3.13;;;25.20;43.90;;;;;;5052619;28;20063;-48
2021/08/04 12:04:46;;;;;;;3.47;2.53;;;24.30;45.90;;;;;;5053658;28;20119;-48
2021/08/04 12:07:13;;;;;;;4.25;2.80;;;24.30;46.40;;;;;;5053460;28;20067;-48
2021/08/04 12:09:40;;;;;;;3.08;2.60;;;24.20;47.20;;;;;;5052381;28;20029;-48
2021/08/04 12:12:15;;;;;;;5.60;2.83;;;23.70;47.80;;;;;;5052985;28;20021;-47
2021/08/04 12:14:41;;;;;;;6.03;3.60;;;23.40;49.10;;;;;;5053142;28;20036;-48
2021/08/04 12:17:07;;;;;;;4.68;3.10;;;23.10;49.40;;;;;;5053507;28;20035;-50
2021/08/04 12:19:39;;;;;;;4.38;3.15;;;22.90;50.30;;;;;;5052722;28;20424;-48
2021/08/04 12:22:15;;;;;;;5.68;3.53;;;22.70;51.60;;;;;;5053267;28;20453;-48
2021/08/04 12:24:43;;;;;;;4.30;3.55;;;22.80;50.80;;;;;;5052901;28;20033;-50
2021/08/04 12:27:09;;;;;;;4.13;3.30;;;23.00;50.00;;;;;;5053274;28;20029;-52
2021/08/04 12:29:35;;;;;;;4.22;3.05;;;23.80;48.70;;;;;;5051660;28;20358;-49
2021/08/04 12:32:28;;;;;;;6.25;3.05;;;24.80;45.80;;;;;;5053212;28;20063;-50
2021/08/04 12:35:02;;;;;;;7.53;2.97;;;26.60;41.30;;;;;;5052901;28;20040;-50
2021/08/04 12:37:30;;;;;;;4.18;3.00;;;27.40;40.00;;;;;;5053178;28;20048;-49
2021/08/04 12:40:10;;;;;;;3.00;2.72;;;27.80;38.90;;;;;;5053640;28;20025;-49
2021/08/04 12:42:36;;;;;;;;;;;27.20;39.40;;;;;;5053795;28;20381;-51
2021/08/04 12:45:25;;;;;;;4.28;2.63;;;25.50;43.60;;;;;;5052942;28;19905;-48
2021/08/04 12:47:58;;;;;;;5.90;2.70;;;24.90;45.30;;;;;;5053118;28;20021;-51
2021/08/04 12:50:26;;;;;;;3.70;2.60;;;24.80;45.10;;;;;;5035739;28;20465;-48
2021/08/04 12:52:52;;;;;;;3.63;2.78;;;24.00;46.40;;;;;;5052830;28;20029;-49